Terminal Aerodrome Forecast
Issued by NWS Upton, NY

Home | Current Version | Previous Version | Text Only | Print | Product List | Glossary On
Versions: 1 2 3 4 5 6 7 8 9 10 11 12 13 14 15 16 17 18 19 20 21 22 23 24 25 26 27 28 29 30 31 32 33
000
FTUS41 KOKX 210244 AAB
TAFJFK
TAF AMD
KJFK 210244Z 2103/2206 10005KT 1/4SM -DZ FG OVC002
      TEMPO 2104/2107 2SM SHRA BKN005 OVC010
     FM210700 17004KT 1/4SM -DZ FG OVC003
     FM211000 25007KT 6SM BR BKN025
     FM211500 27017G25KT P6SM SCT050
     FM220000 25014KT P6SM FEW050=

USA.gov is the U.S. government's official web portal to all federal, state and local government web resources and services.